CSCL Genoa — V2OH2 — position and weather

sailwx.info

Track history (hours):
 
Tides and Currents Weather Stations Pressure Air Temp Water Temp Dewpoint Dewpoint Depression Visibility Wind Speed Wind Dir Waves Ship Positions

CSCL Genoa

Last reported at 2015-Mar-31 03:28 UTC. Time now 2015-Mar-31 22:05 UTC.
Position S 34°52' E 019°35'.

Length 208 m; beam 32 m; draft 11.5 m.

Type: Ship. MMSI: 304528000.

Date/timePositionNaut miles runAvg speedWind from/ knotsBaromVisibWave heightAir tempDewpointWater temp
2015-Mar-31 03:28S 34°52' E 019°35'11313.9
2015-Mar-30 19:21S 34°39' E 021°51'53114.8
2015-Mar-29 07:33S 30°11' E 030°54'1514.8
2015-Mar-29 06:33S 29°58' E 031°03'6 6.2
2015-Mar-29 05:33S 29°52' E 031°03'2 1.6
2015-Mar-29 04:30S 29°53' E 031°02'0 0.0
2015-Mar-29 03:30S 29°53' E 031°01'0 0.0
2015-Mar-29 02:30S 29°53' E 031°02'0 0.0
2015-Mar-29 01:30S 29°53' E 031°02'0 0.0
2015-Mar-29 00:30S 29°53' E 031°01'0 0.0
2015-Mar-28 23:30S 29°53' E 031°02'0 0.0
2015-Mar-28 22:30S 29°53' E 031°02'0 0.0
2015-Mar-28 21:24S 29°53' E 031°01'0 0.0
2015-Mar-28 20:30S 29°53' E 031°01'0 0.0
2015-Mar-28 19:30S 29°53' E 031°01'0 0.0
2015-Mar-28 18:24S 29°53' E 031°01'0 0.0
2015-Mar-28 17:30S 29°53' E 031°02'0 0.0
2015-Mar-28 16:30S 29°53' E 031°02'0 0.0
2015-Mar-28 15:30S 29°53' E 031°02'0 0.0
2015-Mar-28 14:30S 29°53' E 031°01'0 0.0
2015-Mar-28 13:30S 29°53' E 031°01'2 1.8
2015-Mar-28 12:34S 29°52' E 031°03'6 5.6
2015-Mar-28 11:34S 29°49' E 031°08'2 2.2
2015-Mar-28 10:33S 29°50' E 031°07'3 3.3
2015-Mar-28 09:34S 29°51' E 031°10'5 4.9
2015-Mar-28 08:33S 29°52' E 031°16'0 0.1
2015-Mar-28 07:34S 29°52' E 031°16'5 4.9
2015-Mar-28 06:34S 29°47' E 031°15'1615.7
2015-Mar-28 05:34S 29°37' E 031°29'1615.6
2015-Mar-28 04:34S 29°26' E 031°42'  
Track history (hours):
 
Tides and Currents Weather Stations Pressure Air Temp Water Temp Dewpoint Dewpoint Depression Visibility Wind Speed Wind Dir Waves Ship Positions

CSCL Genoa

Last reported at 2015-Mar-31 03:28 UTC. Time now 2015-Mar-31 22:05 UTC.
Position S 34°52' E 019°35'.

Length 208 m; beam 32 m; draft 11.5 m.

Type: Ship. MMSI: 304528000.

Date/timePositionNaut miles runAvg speedWind from/ knotsBaromVisibWave heightAir tempDewpointWater temp
2015-Mar-31 03:28S 34°52' E 019°35'11313.9
2015-Mar-30 19:21S 34°39' E 021°51'53114.8
2015-Mar-29 07:33S 30°11' E 030°54'1514.8
2015-Mar-29 06:33S 29°58' E 031°03'6 6.2
2015-Mar-29 05:33S 29°52' E 031°03'2 1.6
2015-Mar-29 04:30S 29°53' E 031°02'0 0.0
2015-Mar-29 03:30S 29°53' E 031°01'0 0.0
2015-Mar-29 02:30S 29°53' E 031°02'0 0.0
2015-Mar-29 01:30S 29°53' E 031°02'0 0.0
2015-Mar-29 00:30S 29°53' E 031°01'0 0.0
2015-Mar-28 23:30S 29°53' E 031°02'0 0.0
2015-Mar-28 22:30S 29°53' E 031°02'0 0.0
2015-Mar-28 21:24S 29°53' E 031°01'0 0.0
2015-Mar-28 20:30S 29°53' E 031°01'0 0.0
2015-Mar-28 19:30S 29°53' E 031°01'0 0.0
2015-Mar-28 18:24S 29°53' E 031°01'0 0.0
2015-Mar-28 17:30S 29°53' E 031°02'0 0.0
2015-Mar-28 16:30S 29°53' E 031°02'0 0.0
2015-Mar-28 15:30S 29°53' E 031°02'0 0.0
2015-Mar-28 14:30S 29°53' E 031°01'0 0.0
2015-Mar-28 13:30S 29°53' E 031°01'2 1.8
2015-Mar-28 12:34S 29°52' E 031°03'6 5.6
2015-Mar-28 11:34S 29°49' E 031°08'2 2.2
2015-Mar-28 10:33S 29°50' E 031°07'3 3.3
2015-Mar-28 09:34S 29°51' E 031°10'5 4.9
2015-Mar-28 08:33S 29°52' E 031°16'0 0.1
2015-Mar-28 07:34S 29°52' E 031°16'5 4.9
2015-Mar-28 06:34S 29°47' E 031°15'1615.7
2015-Mar-28 05:34S 29°37' E 031°29'1615.6
2015-Mar-28 04:34S 29°26' E 031°42'  

Dump ship's entire track history